createdAt,value
2024-02-24T00:25:51.479Z,80.88
2024-02-24T00:38:04.444Z,80.94
2024-02-24T01:19:36.778Z,81.20
2024-02-24T01:25:41.745Z,81.00
2024-02-24T02:42:10.124Z,80.33
2024-02-24T02:54:08.260Z,80.52
2024-02-24T03:05:50.141Z,80.63
2024-02-24T03:17:29.982Z,80.18
2024-02-24T03:34:56.101Z,80.25
2024-02-24T03:58:23.110Z,80.59
2024-02-24T04:34:19.113Z,80.15
2024-02-24T05:33:55.967Z,79.81
2024-02-24T05:50:47.607Z,80.25
2024-02-24T05:55:51.265Z,80.33
2024-02-24T06:00:54.070Z,80.32
2024-02-24T06:05:56.879Z,80.39
2024-02-24T06:10:59.598Z,80.44
2024-02-24T06:16:02.437Z,80.56
2024-02-24T06:21:05.407Z,80.13
2024-02-24T06:26:08.230Z,80.33
2024-02-24T06:31:10.805Z,80.37
2024-02-24T06:36:13.354Z,80.49
2024-02-24T06:41:25.490Z,80.46
2024-02-24T06:46:30.541Z,80.41
2024-02-24T06:51:33.118Z,80.26
2024-02-24T06:56:37.009Z,80.48
2024-02-24T07:01:40.616Z,80.27
2024-02-24T07:06:43.965Z,80.35
2024-02-24T07:11:46.870Z,80.14
2024-02-24T07:16:53.842Z,80.20
2024-02-24T07:27:48.100Z,80.22
2024-02-24T07:32:51.604Z,80.46
2024-02-24T07:37:58.063Z,80.37
2024-02-24T07:43:08.029Z,80.31
2024-02-24T07:48:20.537Z,80.22
2024-02-24T07:53:37.822Z,80.07
2024-02-24T07:58:46.368Z,80.30
2024-02-24T08:03:55.134Z,80.36
2024-02-24T08:09:00.604Z,80.46
2024-02-24T08:14:04.834Z,80.32
2024-02-24T08:19:08.647Z,80.13
2024-02-24T08:24:11.720Z,80.06
2024-02-24T08:29:14.282Z,80.15
2024-02-24T08:34:17.903Z,80.32
2024-02-24T08:39:20.573Z,80.25
2024-02-24T08:44:25.402Z,80.13
2024-02-24T08:49:28.087Z,80.19
2024-02-24T08:54:31.736Z,80.20
2024-02-24T08:59:36.609Z,79.90
2024-02-24T09:04:39.814Z,80.03
2024-02-24T09:09:42.447Z,79.90
2024-02-24T09:14:45.151Z,79.99
2024-02-24T09:19:47.665Z,79.87
2024-02-24T09:24:51.219Z,79.85
2024-02-24T09:29:56.266Z,79.81
2024-02-24T09:35:01.125Z,79.69
2024-02-24T09:40:08.929Z,79.55
2024-02-24T09:45:20.116Z,79.63
2024-02-24T09:50:22.916Z,79.23
2024-02-24T09:55:26.293Z,79.41
2024-02-24T10:00:29.165Z,79.22
2024-02-24T10:05:31.857Z,79.28
2024-02-24T10:10:34.991Z,79.16
2024-02-24T10:15:38.530Z,79.36
2024-02-24T10:20:42.289Z,79.20
2024-02-24T10:25:48.738Z,79.21
2024-02-24T10:30:51.374Z,79.16
2024-02-24T10:35:58.243Z,79.27
2024-02-24T10:41:01.918Z,79.14
2024-02-24T10:46:04.700Z,79.04
2024-02-24T10:51:07.515Z,78.89
2024-02-24T10:56:10.992Z,79.00
2024-02-24T11:01:14.676Z,79.04
2024-02-24T11:06:46.918Z,79.09
2024-02-24T11:11:49.796Z,79.05
2024-02-24T11:16:53.019Z,78.73
2024-02-24T11:22:03.256Z,78.75
2024-02-24T11:27:06.692Z,79.13
2024-02-24T11:32:13.879Z,79.05
2024-02-24T11:37:20.480Z,78.98
2024-02-24T11:42:26.734Z,79.03
2024-02-24T11:47:29.589Z,78.99
2024-02-24T11:52:33.922Z,78.90
2024-02-24T11:57:39.326Z,78.94
2024-02-24T12:02:42.041Z,78.80
2024-02-24T12:07:45.122Z,78.94
2024-02-24T12:12:51.216Z,79.21
2024-02-24T12:17:54.343Z,79.21
2024-02-24T12:23:05.909Z,79.40
2024-02-24T12:28:08.615Z,79.05
2024-02-24T12:33:18.800Z,79.42
2024-02-24T12:38:21.937Z,79.29
2024-02-24T12:43:26.479Z,79.41
2024-02-24T12:48:30.177Z,79.35
2024-02-24T12:53:32.796Z,79.08
2024-02-24T12:58:45.367Z,79.38
2024-02-24T13:03:47.942Z,79.22
2024-02-24T13:08:51.704Z,79.01
2024-02-24T13:13:54.379Z,79.08
2024-02-24T13:18:58.088Z,79.07
2024-02-24T13:24:01.512Z,79.01
2024-02-24T13:29:05.190Z,79.23
2024-02-24T13:34:07.810Z,79.06
2024-02-24T13:39:12.104Z,78.92
2024-02-24T13:44:15.920Z,78.95
2024-02-24T13:49:23.671Z,78.97
2024-02-24T13:54:30.374Z,79.00
2024-02-24T13:59:33.432Z,78.93
2024-02-24T14:04:36.104Z,78.94
2024-02-24T14:09:38.839Z,78.94
2024-02-24T14:14:42.416Z,78.81
2024-02-24T14:19:45.130Z,78.90
2024-02-24T14:24:47.733Z,79.02
2024-02-24T14:29:50.583Z,78.59
2024-02-24T14:34:53.158Z,78.76
2024-02-24T14:39:58.599Z,78.89
2024-02-24T14:45:01.355Z,78.63
2024-02-24T14:50:05.146Z,78.78
2024-02-24T14:55:08.824Z,78.41
2024-02-24T15:00:14.855Z,78.77
2024-02-24T15:05:17.953Z,78.42
2024-02-24T15:10:21.928Z,78.55
2024-02-24T15:15:24.551Z,78.51
2024-02-24T15:20:27.126Z,78.79
2024-02-24T15:25:29.808Z,78.89
2024-02-24T15:30:32.291Z,78.94
2024-02-24T15:35:34.927Z,78.85
2024-02-24T15:40:40.774Z,78.72
2024-02-24T15:45:44.701Z,78.88
2024-02-24T15:50:48.321Z,78.86
2024-02-24T15:55:51.108Z,79.14
2024-02-24T16:00:53.720Z,79.17
2024-02-24T16:05:56.466Z,79.00
2024-02-24T16:10:59.320Z,79.20
2024-02-24T16:16:02.924Z,79.15
2024-02-24T16:21:05.525Z,79.20
2024-02-24T16:26:08.425Z,79.10
2024-02-24T16:31:11.017Z,79.26
2024-02-24T16:36:14.115Z,79.16
2024-02-24T16:41:16.711Z,79.26
2024-02-24T16:46:19.367Z,79.22
2024-02-24T16:51:22.049Z,79.14
2024-02-24T16:56:28.605Z,79.30
2024-02-24T17:01:31.253Z,79.31
2024-02-24T17:06:34.010Z,79.11
2024-02-24T17:11:37.723Z,79.19
2024-02-24T17:16:40.477Z,79.28
2024-02-24T17:21:43.040Z,79.15
2024-02-24T17:26:49.897Z,79.22
2024-02-24T17:31:57.742Z,78.95
2024-02-24T17:37:00.444Z,78.66
2024-02-24T17:42:03.137Z,78.98
2024-02-24T17:47:05.912Z,79.12
2024-02-24T17:52:08.513Z,79.10
2024-02-24T17:57:13.439Z,79.22
2024-02-24T18:02:16.650Z,79.03
2024-02-24T18:07:19.320Z,78.94
2024-02-24T18:12:22.176Z,79.25
2024-02-24T18:17:24.860Z,79.19
2024-02-24T18:22:27.884Z,79.27
2024-02-24T18:27:38.583Z,79.18
2024-02-24T18:32:41.683Z,78.94
2024-02-24T18:37:45.595Z,78.91
2024-02-24T18:42:48.231Z,78.98
2024-02-24T18:47:50.989Z,78.84
2024-02-24T18:52:53.603Z,79.04
2024-02-24T18:57:56.264Z,79.15
2024-02-24T19:02:58.963Z,78.94
2024-02-24T19:08:03.937Z,78.91
2024-02-24T19:13:06.802Z,78.68
2024-02-24T19:18:15.573Z,78.90
2024-02-24T19:23:19.047Z,78.59
2024-02-24T19:28:21.872Z,78.60
2024-02-24T19:33:26.341Z,78.88
2024-02-24T19:38:30.780Z,78.69
2024-02-24T19:43:33.498Z,78.65
2024-02-24T19:48:36.645Z,78.64
2024-02-24T19:53:39.323Z,78.44
2024-02-24T19:58:47.803Z,78.51
2024-02-24T20:03:57.698Z,78.41
2024-02-24T20:09:00.316Z,78.47
2024-02-24T20:14:02.976Z,78.35
2024-02-24T20:19:05.668Z,77.96
2024-02-24T20:24:08.468Z,78.12
2024-02-24T20:29:11.019Z,77.81
2024-02-24T20:34:16.110Z,77.72
2024-02-24T20:39:18.832Z,77.87
2024-02-24T20:44:21.324Z,77.88
2024-02-24T20:49:26.172Z,77.66
2024-02-24T20:54:31.236Z,77.45
2024-02-24T20:59:33.653Z,77.25
2024-02-24T21:04:36.776Z,77.12
2024-02-24T21:09:39.129Z,77.23
2024-02-24T21:14:41.543Z,77.03
2024-02-24T21:19:44.333Z,76.74
2024-02-24T21:24:46.714Z,76.63
2024-02-24T21:29:50.324Z,76.57
2024-02-24T21:34:52.794Z,76.35
2024-02-24T21:39:57.410Z,76.12
2024-02-24T21:45:00.418Z,76.28
2024-02-24T21:50:03.096Z,76.00
2024-02-24T21:55:06.671Z,76.02
2024-02-24T22:00:16.704Z,75.82
2024-02-24T22:05:20.680Z,75.89
2024-02-24T22:10:25.099Z,76.08
2024-02-24T22:15:27.603Z,76.15
2024-02-24T22:20:30.163Z,76.33
2024-02-24T22:25:32.675Z,76.37
2024-02-24T22:30:36.100Z,76.37
2024-02-24T22:35:38.771Z,76.39
2024-02-24T22:40:41.212Z,76.30
2024-02-24T22:45:43.920Z,76.67
2024-02-24T22:50:46.410Z,76.45
2024-02-24T22:55:48.999Z,76.63
2024-02-24T23:00:51.500Z,76.94
2024-02-24T23:05:54.018Z,77.04
2024-02-24T23:10:56.490Z,76.90
2024-02-24T23:15:59.051Z,77.16
2024-02-24T23:21:01.620Z,77.22
2024-02-24T23:26:04.980Z,77.39
2024-02-24T23:31:07.561Z,77.24
2024-02-24T23:36:13.974Z,77.43
2024-02-24T23:41:16.560Z,77.64
2024-02-24T23:46:19.011Z,77.72
2024-02-24T23:51:21.400Z,78.08
2024-02-24T23:56:25.148Z,77.97
